Time;durP1;ratioP1;P1;durP2;ratioP2;P2;SDS_P1;SDS_P2;PMS_P1;PMS_P2;Temp;Humidity;BMP_temperature;BMP_pressure;BME280_temperature;BME280_humidity;BME280_pressure;Samples;Min_cycle;Max_cycle;Signal;HPM_P1;HPM_P2
2022/12/22 03:26:28;;;;;;;3.45;1.08;;;9.50;99.90;;;;;;5048811;28;20028;-69
2022/12/22 03:28:55;;;;;;;0.93;0.73;;;9.40;99.90;;;;;;5051052;28;20065;-70
2022/12/22 03:31:20;;;;;;;2.38;1.02;;;9.40;99.90;;;;;;5059266;28;20029;-70
2022/12/22 03:33:46;;;;;;;1.42;0.90;;;9.40;99.90;;;;;;5051138;28;20033;-70
2022/12/22 03:36:11;;;;;;;1.50;0.70;;;9.40;99.90;;;;;;5052520;28;20062;-70
2022/12/22 03:38:37;;;;;;;1.85;1.10;;;9.40;99.90;;;;;;5052625;28;20037;-71
2022/12/22 03:41:03;;;;;;;2.05;0.90;;;9.40;99.90;;;;;;5040219;28;20048;-71
2022/12/22 03:46:30;;;;;;;3.05;0.82;;;9.40;99.90;;;;;;5050754;28;20437;-69
2022/12/22 03:49:11;;;;;;;2.75;0.60;;;9.40;99.90;;;;;;5049804;28;20110;-69
2022/12/22 03:51:38;;;;;;;;;;;9.50;99.90;;;;;;5052636;28;20139;-69
2022/12/22 03:54:04;;;;;;;2.15;0.70;;;9.40;99.90;;;;;;5050637;28;19904;-70
2022/12/22 03:56:29;;;;;;;1.23;0.50;;;9.40;99.90;;;;;;5052358;28;20606;-70
2022/12/22 03:58:55;;;;;;;1.25;1.13;;;9.40;99.90;;;;;;5051330;28;20044;-70
2022/12/22 04:01:21;;;;;;;1.23;0.57;;;9.40;99.90;;;;;;5053927;28;20039;-70
2022/12/22 04:03:48;;;;;;;0.80;0.70;;;9.50;99.90;;;;;;5050547;28;20026;-69
2022/12/22 04:06:14;;;;;;;0.93;0.70;;;9.60;99.90;;;;;;5051917;28;20025;-70
2022/12/22 04:08:39;;;;;;;0.93;0.60;;;9.60;99.90;;;;;;5052342;28;20041;-71
2022/12/22 04:13:49;;;;;;;1.05;0.50;;;9.70;99.90;;;;;;5050697;28;20075;-71
2022/12/22 04:16:15;;;;;;;2.13;0.70;;;9.80;99.90;;;;;;5051627;28;20029;-71
2022/12/22 04:18:40;;;;;;;3.13;0.70;;;9.80;99.90;;;;;;5050142;28;20045;-73
2022/12/22 04:21:06;;;;;;;1.98;0.70;;;9.80;99.90;;;;;;5051010;28;20053;-69
2022/12/22 04:23:31;;;;;;;1.35;0.60;;;9.90;99.90;;;;;;5051294;28;20453;-69
2022/12/22 04:25:58;;;;;;;3.03;0.70;;;10.00;99.90;;;;;;5050937;28;20063;-69
2022/12/22 04:28:23;;;;;;;1.98;0.80;;;9.90;99.90;;;;;;5019079;28;1061737;-70
2022/12/22 04:30:49;;;;;;;3.03;0.80;;;9.90;99.90;;;;;;5053557;28;20385;-70
2022/12/22 04:33:15;;;;;;;4.00;0.70;;;9.90;99.90;;;;;;5051667;28;20446;-70
2022/12/22 04:35:41;;;;;;;1.25;0.55;;;9.90;99.90;;;;;;5052015;28;20032;-73
2022/12/22 04:38:06;;;;;;;1.40;0.80;;;9.90;99.90;;;;;;5054795;28;20041;-70
2022/12/22 04:40:32;;;;;;;2.55;0.98;;;9.90;99.90;;;;;;5052442;28;20033;-70
2022/12/22 04:42:58;;;;;;;1.67;0.75;;;9.80;99.90;;;;;;5050889;28;20025;-69
2022/12/22 04:45:23;;;;;;;4.20;0.93;;;9.80;99.90;;;;;;5051492;28;20434;-69
2022/12/22 04:47:49;;;;;;;4.85;1.30;;;9.70;99.90;;;;;;5051853;28;20032;-71
2022/12/22 04:50:15;;;;;;;3.75;0.85;;;9.70;99.90;;;;;;5052388;28;20033;-69
2022/12/22 04:52:40;;;;;;;3.38;0.90;;;9.60;99.90;;;;;;5050968;28;20033;-73
2022/12/22 04:55:06;;;;;;;1.95;0.70;;;9.60;99.90;;;;;;5051866;28;20043;-70
2022/12/22 04:57:32;;;;;;;2.05;0.70;;;9.70;99.90;;;;;;5050652;28;20433;-71
2022/12/22 04:59:57;;;;;;;3.50;0.70;;;9.70;99.90;;;;;;5051077;28;20071;-72
2022/12/22 05:02:23;;;;;;;2.75;0.77;;;9.70;99.90;;;;;;5051046;28;20111;-70
2022/12/22 05:04:48;;;;;;;2.70;1.05;;;9.70;99.90;;;;;;5052757;28;20082;-71
2022/12/22 05:07:14;;;;;;;3.33;0.90;;;9.80;99.90;;;;;;5051388;28;20024;-71
2022/12/22 05:09:40;;;;;;;2.40;0.70;;;9.90;99.90;;;;;;5051455;28;20031;-73
2022/12/22 05:12:53;;;;;;;3.13;0.60;;;9.90;99.90;;;;;;5050539;28;20056;-70
2022/12/22 05:14:51;;;;;;;2.30;0.90;;;10.00;99.90;;;;;;5050452;28;20485;-71
2022/12/22 05:17:17;;;;;;;3.50;0.80;;;10.10;99.90;;;;;;5051275;28;20033;-71
2022/12/22 05:19:43;;;;;;;2.75;0.70;;;10.10;99.90;;;;;;5032780;28;20033;-73
2022/12/22 05:22:08;;;;;;;2.63;0.90;;;10.20;99.90;;;;;;5050939;28;20816;-70
2022/12/22 05:24:34;;;;;;;2.72;0.98;;;10.20;99.90;;;;;;5052377;28;20028;-71
2022/12/22 05:27:00;;;;;;;1.30;0.68;;;10.30;99.90;;;;;;5050098;28;20142;-70
2022/12/22 05:29:25;;;;;;;3.28;0.98;;;10.40;99.90;;;;;;5050803;28;20056;-70
2022/12/22 05:31:51;;;;;;;3.92;0.75;;;10.40;99.90;;;;;;5052147;28;20029;-70
2022/12/22 05:34:16;;;;;;;7.35;0.98;;;10.50;99.90;;;;;;5052383;28;20540;-71
2022/12/22 05:36:42;;;;;;;6.15;0.93;;;10.50;99.90;;;;;;5053332;28;20040;-73
2022/12/22 05:39:08;;;;;;;5.00;0.90;;;10.40;99.90;;;;;;5049553;28;20043;-70
2022/12/22 05:41:33;;;;;;;4.97;0.80;;;10.40;99.90;;;;;;5051127;28;20402;-70
2022/12/22 05:43:59;;;;;;;4.60;1.05;;;10.30;99.90;;;;;;5049679;28;20083;-70
2022/12/22 05:46:24;;;;;;;2.25;0.82;;;10.30;99.90;;;;;;5050891;28;20144;-70
2022/12/22 05:48:50;;;;;;;3.15;1.25;;;10.30;99.90;;;;;;5049229;28;20037;-69
2022/12/22 05:51:15;;;;;;;8.27;1.52;;;10.30;99.90;;;;;;5051203;28;20024;-70
2022/12/22 05:53:41;;;;;;;3.97;1.27;;;10.30;99.90;;;;;;5050394;28;20458;-72
2022/12/22 05:56:08;;;;;;;4.05;0.90;;;10.30;99.90;;;;;;5050300;28;20029;-72
2022/12/22 05:58:35;;;;;;;4.47;0.90;;;10.30;99.90;;;;;;5049671;28;20029;-71
2022/12/22 06:01:01;;;;;;;4.43;0.77;;;10.20;99.90;;;;;;5049228;28;20577;-71
2022/12/22 06:03:27;;;;;;;2.58;1.02;;;10.20;99.90;;;;;;5050751;28;20017;-71
2022/12/22 06:05:53;;;;;;;4.55;1.15;;;10.20;99.90;;;;;;5049943;28;20075;-71
2022/12/22 06:08:19;;;;;;;6.28;1.17;;;10.20;99.90;;;;;;5050067;28;20033;-70
2022/12/22 06:10:45;;;;;;;5.22;1.10;;;10.10;99.90;;;;;;5049997;28;20536;-70
2022/12/22 06:13:10;;;;;;;4.45;1.50;;;10.20;99.90;;;;;;5050499;28;20044;-70
2022/12/22 06:15:36;;;;;;;6.30;1.25;;;10.10;99.90;;;;;;5050450;28;20029;-69
2022/12/22 06:18:02;;;;;;;4.68;1.10;;;10.00;99.90;;;;;;5046564;28;20643;-69
2022/12/22 06:20:27;;;;;;;5.53;1.30;;;9.90;99.90;;;;;;5050027;28;20029;-69
2022/12/22 06:22:53;;;;;;;4.82;1.17;;;9.90;99.90;;;;;;5049479;28;20480;-68
2022/12/22 06:25:18;;;;;;;4.68;0.98;;;9.80;99.90;;;;;;5047500;28;20081;-69
2022/12/22 06:27:45;;;;;;;9.27;1.38;;;9.70;99.90;;;;;;5048686;28;20029;-70
2022/12/22 06:30:11;;;;;;;7.68;1.42;;;9.70;99.90;;;;;;5049477;28;20460;-69
2022/12/22 06:32:37;;;;;;;2.80;0.80;;;9.60;99.90;;;;;;5050356;28;20036;-69
2022/12/22 06:35:05;;;;;;;6.63;1.30;;;9.50;99.90;;;;;;5043873;28;20032;-69
2022/12/22 06:37:31;;;;;;;5.90;1.20;;;9.40;99.90;;;;;;5049521;28;20017;-69
2022/12/22 06:39:56;;;;;;;9.70;1.70;;;9.40;99.90;;;;;;5049423;28;20063;-69
2022/12/22 06:45:07;;;;;;;12.20;1.95;;;9.50;99.90;;;;;;5049507;28;20401;-69
2022/12/22 06:47:32;;;;;;;8.77;2.08;;;9.60;99.90;;;;;;5049528;28;20031;-69
2022/12/22 06:49:58;;;;;;;8.55;1.70;;;9.60;99.90;;;;;;5030923;28;20389;-69
2022/12/22 06:52:23;;;;;;;8.38;1.95;;;9.70;99.90;;;;;;5050043;28;20025;-68
2022/12/22 06:54:49;;;;;;;10.00;2.30;;;9.80;99.90;;;;;;5053877;28;20025;-69
2022/12/22 06:57:15;;;;;;;11.18;1.30;;;9.90;99.90;;;;;;5049085;28;20424;-67
2022/12/22 06:59:41;;;;;;;9.35;1.73;;;10.10;99.90;;;;;;5049775;28;20069;-70
2022/12/22 07:02:08;;;;;;;6.97;1.20;;;10.20;99.90;;;;;;5048964;28;20037;-67
2022/12/22 07:04:34;;;;;;;8.07;1.50;;;10.30;99.90;;;;;;5056304;28;20021;-68
2022/12/22 07:06:59;;;;;;;7.32;1.58;;;10.30;99.90;;;;;;5047844;28;20021;-68
2022/12/22 07:09:25;;;;;;;8.73;1.88;;;10.30;99.90;;;;;;5050181;28;20266;-70
2022/12/22 07:11:51;;;;;;;12.05;2.00;;;10.40;99.90;;;;;;5048905;28;20457;-69
2022/12/22 07:14:16;;;;;;;8.13;1.40;;;10.40;99.90;;;;;;5049989;28;20032;-69
2022/12/22 07:16:42;;;;;;;8.52;1.80;;;10.50;99.90;;;;;;5049504;28;20083;-71
2022/12/22 07:19:08;;;;;;;9.82;1.80;;;10.50;99.90;;;;;;5049065;28;20029;-69
2022/12/22 07:21:33;;;;;;;10.38;2.00;;;10.50;99.90;;;;;;5051371;28;20098;-69
2022/12/22 07:23:59;;;;;;;9.85;2.00;;;10.50;99.90;;;;;;5050672;28;20505;-70
2022/12/22 07:26:25;;;;;;;6.82;1.80;;;10.60;99.90;;;;;;5053803;28;20033;-69
2022/12/22 07:28:50;;;;;;;9.85;1.88;;;10.60;99.90;;;;;;5051391;28;20049;-68
2022/12/22 07:31:17;;;;;;;4.85;1.70;;;10.60;99.90;;;;;;5055761;28;20481;-69
2022/12/22 07:33:45;;;;;;;8.80;1.70;;;10.70;99.90;;;;;;5056917;28;20466;-76
2022/12/22 07:36:17;;;;;;;8.80;2.08;;;10.60;99.90;;;;;;5053218;28;20036;-68
2022/12/22 07:38:45;;;;;;;10.07;2.35;;;10.60;99.90;;;;;;5051102;28;20390;-69
2022/12/22 07:43:58;;;;;;;9.02;1.85;;;10.80;99.90;;;;;;5050210;28;20112;-69
2022/12/22 07:46:27;;;;;;;8.77;1.90;;;10.90;99.90;;;;;;5052235;28;20033;-69
2022/12/22 07:51:39;;;;;;;11.70;2.30;;;10.80;99.90;;;;;;5052779;28;20040;-68
2022/12/22 07:54:06;;;;;;;9.43;1.90;;;10.80;99.90;;;;;;5051821;28;20029;-70
2022/12/22 07:56:32;;;;;;;8.38;2.03;;;10.60;99.90;;;;;;5052848;28;20112;-68
2022/12/22 07:59:00;;;;;;;14.20;2.47;;;10.60;99.90;;;;;;5050574;28;20473;-67
2022/12/22 08:01:26;;;;;;;11.60;1.83;;;10.50;99.90;;;;;;5052938;28;20130;-69
2022/12/22 08:03:51;;;;;;;11.05;1.63;;;10.50;99.90;;;;;;5058727;28;20466;-69
2022/12/22 08:06:17;;;;;;;8.15;1.77;;;10.30;99.90;;;;;;5058429;28;20398;-70
2022/12/22 08:08:43;;;;;;;8.85;1.80;;;10.20;99.90;;;;;;5051547;28;20029;-71
2022/12/22 08:11:08;;;;;;;10.20;1.50;;;10.10;99.90;;;;;;5052668;28;20095;-69
2022/12/22 08:13:34;;;;;;;9.55;1.23;;;10.00;99.90;;;;;;5052371;28;20446;-69
2022/12/22 08:16:08;;;;;;;8.38;2.00;;;10.00;99.90;;;;;;5051817;28;20029;-67
2022/12/22 08:18:35;;;;;;;8.45;1.98;;;10.00;99.90;;;;;;5042976;28;20087;-69
2022/12/22 08:21:03;;;;;;;10.05;1.75;;;10.10;99.90;;;;;;5054849;28;20036;-68
2022/12/22 08:23:32;;;;;;;7.28;1.42;;;10.00;99.90;;;;;;5030176;28;20363;-68
2022/12/22 08:26:09;;;;;;;3.95;1.17;;;10.00;99.90;;;;;;5050500;28;20025;-69
2022/12/22 08:28:40;;;;;;;5.78;1.50;;;10.00;99.90;;;;;;5047451;28;20127;-69
2022/12/22 08:31:06;;;;;;;8.38;2.10;;;10.10;99.90;;;;;;5061410;28;20158;-71
2022/12/22 08:33:32;;;;;;;7.53;1.48;;;10.10;99.90;;;;;;5047188;28;20036;-68
2022/12/22 08:35:58;;;;;;;8.95;2.15;;;10.10;99.90;;;;;;5055394;28;20020;-69
2022/12/22 08:38:24;;;;;;;11.80;2.35;;;10.10;99.90;;;;;;5047264;28;20033;-67
2022/12/22 08:40:50;;;;;;;12.10;2.33;;;10.10;99.90;;;;;;5051581;28;20029;-66
2022/12/22 08:43:17;;;;;;;11.07;2.40;;;10.10;99.90;;;;;;5046951;28;20025;-67
2022/12/22 08:45:42;;;;;;;15.82;2.10;;;10.10;99.90;;;;;;5051427;28;20025;-69
2022/12/22 08:48:09;;;;;;;13.73;2.33;;;10.30;99.90;;;;;;5052797;28;20040;-68
2022/12/22 08:50:35;;;;;;;12.85;1.90;;;10.40;99.90;;;;;;5051798;28;20030;-68
2022/12/22 08:53:06;;;;;;;8.15;2.20;;;10.40;99.90;;;;;;5045162;28;20446;-68
2022/12/22 08:55:32;;;;;;;7.30;1.83;;;10.40;99.90;;;;;;5051708;28;20037;-68
2022/12/22 08:57:57;;;;;;;5.32;1.50;;;10.40;99.90;;;;;;5047242;28;20036;-72
2022/12/22 09:00:24;;;;;;;9.48;2.13;;;10.40;99.90;;;;;;5038536;28;20028;-69
2022/12/22 09:02:49;;;;;;;8.20;2.13;;;10.50;99.90;;;;;;5048137;28;20029;-69
2022/12/22 09:05:15;;;;;;;12.23;2.67;;;10.60;99.90;;;;;;5057236;28;20367;-70
2022/12/22 09:07:41;;;;;;;13.25;2.67;;;10.70;99.90;;;;;;5045978;28;20038;-72
2022/12/22 09:10:08;;;;;;;7.97;1.92;;;10.80;99.90;;;;;;5051981;28;20473;-69
2022/12/22 09:12:34;;;;;;;5.30;1.42;;;11.00;99.90;;;;;;5044683;28;20025;-67
2022/12/22 09:15:00;;;;;;;7.25;1.85;;;11.10;99.90;;;;;;5050783;28;20706;-71
2022/12/22 09:17:25;;;;;;;6.20;1.40;;;11.30;99.90;;;;;;5048209;28;20029;-68
2022/12/22 09:19:51;;;;;;;7.20;1.52;;;11.50;99.90;;;;;;5053192;28;20033;-67
2022/12/22 09:22:17;;;;;;;7.97;1.60;;;11.50;99.90;;;;;;5049989;28;20033;-69
2022/12/22 09:24:42;;;;;;;9.85;1.90;;;11.20;99.90;;;;;;5030096;28;20033;-68
2022/12/22 09:27:08;;;;;;;9.77;1.75;;;10.80;99.90;;;;;;5049364;28;20463;-68
2022/12/22 09:29:35;;;;;;;10.68;1.83;;;10.60;99.90;;;;;;5050955;28;20048;-69
2022/12/22 09:32:02;;;;;;;8.60;1.80;;;10.30;99.90;;;;;;5056161;28;20032;-70
2022/12/22 09:34:28;;;;;;;11.75;2.03;;;10.00;99.90;;;;;;5053499;28;20512;-73
2022/12/22 09:36:53;;;;;;;10.60;1.85;;;9.80;99.90;;;;;;5050161;28;20024;-70
2022/12/22 09:39:19;;;;;;;9.70;1.98;;;9.70;99.90;;;;;;5039775;28;20028;-68
2022/12/22 09:41:53;;;;;;;9.90;1.88;;;9.70;99.90;;;;;;5050467;28;20023;-67
2022/12/22 09:44:30;;;;;;;8.43;1.73;;;9.60;99.90;;;;;;5041137;28;20032;-69
2022/12/22 09:46:59;;;;;;;8.60;2.10;;;9.50;99.90;;;;;;5043866;28;20036;-69
2022/12/22 09:49:25;;;;;;;9.77;1.67;;;9.50;99.90;;;;;;5049234;28;20027;-68
2022/12/22 09:51:56;;;;;;;11.45;1.98;;;9.50;99.90;;;;;;5049840;28;20460;-68
2022/12/22 09:54:23;;;;;;;12.48;2.15;;;9.50;99.90;;;;;;5046672;28;20036;-68
2022/12/22 09:56:49;;;;;;;18.08;1.80;;;9.50;99.90;;;;;;5049632;28;20033;-68
2022/12/22 09:59:18;;;;;;;10.15;2.03;;;9.50;99.90;;;;;;5044636;28;20039;-68
2022/12/22 10:02:23;;;;;;;14.13;2.53;;;9.40;99.90;;;;;;5041717;28;20116;-67
2022/12/22 10:05:00;;;;;;;6.50;1.83;;;9.40;99.90;;;;;;5055230;28;20079;-69
2022/12/22 10:07:32;;;;;;;8.98;1.90;;;9.50;99.90;;;;;;5045699;28;20030;-68
2022/12/22 10:10:23;;;;;;;8.82;1.52;;;9.60;99.90;;;;;;5044033;28;20076;-67
2022/12/22 10:13:00;;;;;;;6.22;1.33;;;9.60;99.90;;;;;;5044772;28;20029;-67
2022/12/22 10:15:32;;;;;;;7.97;1.65;;;9.70;99.90;;;;;;5050096;28;20074;-67
2022/12/22 10:18:09;;;;;;;8.13;1.30;;;9.80;99.90;;;;;;5048911;28;20075;-69
2022/12/22 10:20:37;;;;;;;6.57;1.20;;;9.90;99.90;;;;;;5053731;28;20029;-72
2022/12/22 10:23:19;;;;;;;6.68;1.40;;;10.00;99.90;;;;;;5045833;28;20025;-71
2022/12/22 10:26:12;;;;;;;7.07;2.17;;;10.10;99.90;;;;;;5054623;28;20025;-68
2022/12/22 10:28:50;;;;;;;6.55;1.35;;;10.20;99.90;;;;;;5031775;28;20097;-75
2022/12/22 10:31:23;;;;;;;6.60;1.52;;;10.40;99.90;;;;;;5036736;28;20729;-74
2022/12/22 10:33:52;;;;;;;8.88;1.48;;;10.50;99.90;;;;;;5042184;28;20037;-75
2022/12/22 10:36:23;;;;;;;6.20;1.20;;;10.50;99.90;;;;;;5048531;28;20033;-77
2022/12/22 10:38:59;;;;;;;7.95;1.45;;;10.50;99.90;;;;;;5048350;28;20431;-72
2022/12/22 10:41:43;;;;;;;5.88;1.30;;;10.50;99.90;;;;;;5053999;28;20048;-72
2022/12/22 10:44:19;;;;;;;6.70;1.30;;;10.40;99.90;;;;;;5042264;28;20028;-75
2022/12/22 10:46:57;;;;;;;5.03;1.15;;;10.30;99.90;;;;;;5047598;28;20053;-69
2022/12/22 10:49:38;;;;;;;6.30;1.48;;;10.30;99.90;;;;;;5047819;28;20557;-66
2022/12/22 10:52:27;;;;;;;6.05;1.30;;;10.30;99.90;;;;;;5041630;28;20087;-66
2022/12/22 10:55:19;;;;;;;5.70;1.13;;;10.20;99.90;;;;;;5052714;28;20033;-66
2022/12/22 10:57:45;;;;;;;9.50;1.77;;;10.20;99.90;;;;;;5041253;28;20082;-68
2022/12/22 11:00:29;;;;;;;6.50;1.42;;;10.10;99.90;;;;;;5053653;28;20041;-67
2022/12/22 11:02:57;;;;;;;5.00;1.63;;;10.10;99.90;;;;;;5052706;28;20044;-67
2022/12/22 11:05:23;;;;;;;3.90;1.38;;;10.10;99.90;;;;;;5053679;28;20025;-67
2022/12/22 11:07:49;;;;;;;9.15;1.65;;;10.20;99.90;;;;;;5050494;28;20065;-68
2022/12/22 11:10:30;;;;;;;5.95;1.88;;;10.20;99.90;;;;;;5053385;28;20067;-68
2022/12/22 11:13:10;;;;;;;7.22;1.40;;;10.20;99.90;;;;;;5054294;28;20501;-66
2022/12/22 11:15:55;;;;;;;6.85;1.13;;;10.20;99.90;;;;;;5052576;28;20037;-66
2022/12/22 11:18:39;;;;;;;5.15;1.20;;;10.30;99.90;;;;;;5054751;28;20032;-66
2022/12/22 11:21:39;;;;;;;5.00;1.05;;;10.40;99.90;;;;;;5047928;28;20303;-68
2022/12/22 11:24:20;;;;;;;8.63;1.10;;;10.60;99.90;;;;;;5038361;28;20097;-71
2022/12/22 11:27:17;;;;;;;4.35;1.13;;;10.70;99.90;;;;;;5052829;28;20374;-69
2022/12/22 11:30:07;;;;;;;6.10;1.00;;;10.80;99.90;;;;;;5044209;28;20087;-74
2022/12/22 11:32:47;;;;;;;5.00;0.93;;;11.00;99.90;;;;;;5045047;28;20762;-73
2022/12/22 11:35:44;;;;;;;4.55;0.93;;;11.20;99.90;;;;;;5049717;28;20381;-73
2022/12/22 11:38:18;;;;;;;1.83;0.60;;;11.30;99.90;;;;;;5052656;28;20068;-73
2022/12/22 11:40:49;;;;;;;3.88;0.65;;;11.30;99.90;;;;;;5051139;28;20036;-75
2022/12/22 11:43:21;;;;;;;2.88;0.90;;;11.20;99.90;;;;;;5034884;28;20474;-74
2022/12/22 11:45:58;;;;;;;6.38;1.10;;;11.20;99.90;;;;;;5060613;28;20025;-74
2022/12/22 11:48:43;;;;;;;3.67;1.15;;;11.20;99.90;;;;;;5052155;28;20029;-74
2022/12/22 11:51:32;;;;;;;2.75;0.90;;;11.30;99.90;;;;;;5051795;28;20025;-74
2022/12/22 11:54:23;;;;;;;5.30;1.17;;;11.50;99.90;;;;;;5049539;28;20369;-73
2022/12/22 11:57:17;;;;;;;2.83;0.75;;;11.60;99.90;;;;;;5052002;28;20355;-73
2022/12/22 11:59:42;;;;;;;2.65;0.90;;;11.80;99.90;;;;;;5044819;28;20029;-74
2022/12/22 12:02:30;;;;;;;2.22;0.60;;;11.80;99.90;;;;;;5049604;28;20043;-77
2022/12/22 12:05:19;;;;;;;2.55;0.90;;;11.90;99.90;;;;;;5045394;28;20036;-74
2022/12/22 12:07:53;;;;;;;1.23;0.60;;;11.90;99.90;;;;;;5051425;28;20059;-74
2022/12/22 12:10:30;;;;;;;2.80;0.82;;;12.10;99.90;;;;;;5052918;28;20028;-74
2022/12/22 12:13:14;;;;;;;3.40;0.60;;;12.20;99.90;;;;;;5048009;28;20502;-74
2022/12/22 12:15:49;;;;;;;3.33;0.98;;;12.40;99.90;;;;;;5052599;28;20060;-74
2022/12/22 12:18:29;;;;;;;3.25;0.80;;;12.40;99.90;;;;;;5044806;28;20041;-74
2022/12/22 12:21:25;;;;;;;3.65;0.85;;;12.60;99.90;;;;;;5049337;28;20793;-74
2022/12/22 12:24:09;;;;;;;1.48;0.70;;;12.80;99.90;;;;;;5043918;28;20025;-74
2022/12/22 12:26:57;;;;;;;5.78;1.05;;;12.90;99.90;;;;;;5057195;28;20020;-74
2022/12/22 12:29:26;;;;;;;2.58;0.60;;;13.10;99.90;;;;;;5046738;28;20045;-74
2022/12/22 12:32:14;;;;;;;6.00;0.98;;;13.10;99.90;;;;;;5051574;28;20048;-74
2022/12/22 12:34:48;;;;;;;3.65;0.82;;;13.00;99.90;;;;;;5052237;28;20068;-74
2022/12/22 12:37:21;;;;;;;3.60;1.02;;;12.90;99.90;;;;;;5046056;28;20021;-74
2022/12/22 12:40:10;;;;;;;4.13;1.10;;;12.80;99.90;;;;;;5051134;28;20037;-75
2022/12/22 12:42:42;;;;;;;4.05;0.93;;;12.80;99.90;;;;;;5054306;28;20036;-73
2022/12/22 12:45:34;;;;;;;4.97;1.05;;;12.70;99.90;;;;;;5062293;28;20020;-74
2022/12/22 12:48:18;;;;;;;4.45;1.00;;;12.60;99.90;;;;;;5050289;28;20036;-74
2022/12/22 12:50:45;;;;;;;4.03;0.95;;;12.60;99.90;;;;;;5051067;28;20373;-75
2022/12/22 12:53:11;;;;;;;2.03;0.60;;;12.40;99.90;;;;;;5051335;28;20032;-74
2022/12/22 12:55:39;;;;;;;4.43;1.00;;;12.30;99.90;;;;;;5034176;28;20024;-74
2022/12/22 12:58:09;;;;;;;7.32;0.95;;;12.30;99.90;;;;;;5050777;28;20074;-74
2022/12/22 13:00:35;;;;;;;3.38;0.80;;;12.30;99.90;;;;;;5051998;28;20017;-74
2022/12/22 13:03:06;;;;;;;3.53;0.82;;;12.20;99.90;;;;;;5050639;28;20597;-74
2022/12/22 13:05:53;;;;;;;2.28;1.15;;;12.10;99.90;;;;;;5051399;28;20017;-73
2022/12/22 13:08:20;;;;;;;2.13;0.60;;;12.10;99.90;;;;;;5051501;28;20076;-75
2022/12/22 13:10:54;;;;;;;2.95;0.75;;;12.20;99.90;;;;;;5051684;28;20051;-74
2022/12/22 13:13:25;;;;;;;5.57;0.80;;;12.20;99.90;;;;;;5054616;28;20017;-73
2022/12/22 13:16:00;;;;;;;3.38;0.70;;;12.30;99.90;;;;;;5055511;28;20033;-74
2022/12/22 13:18:27;;;;;;;3.17;0.68;;;12.30;99.90;;;;;;5035431;28;20437;-74
2022/12/22 13:21:14;;;;;;;1.02;0.50;;;12.20;99.90;;;;;;5056404;28;20036;-74
2022/12/22 13:23:55;;;;;;;2.10;0.55;;;12.20;99.90;;;;;;5061249;28;20040;-75
2022/12/22 13:26:30;;;;;;;2.70;0.60;;;12.10;99.90;;;;;;5051437;28;20526;-75
2022/12/22 13:28:58;;;;;;;3.33;0.77;;;12.10;99.90;;;;;;5026764;28;20549;-75
2022/12/22 13:31:33;;;;;;;2.83;0.63;;;12.00;99.90;;;;;;5047031;28;20053;-74
2022/12/22 13:34:16;;;;;;;2.50;0.63;;;11.90;99.90;;;;;;5047092;28;20095;-75
2022/12/22 13:36:42;;;;;;;3.30;1.10;;;11.80;99.90;;;;;;5045267;28;20075;-75
2022/12/22 13:39:13;;;;;;;1.73;0.70;;;11.80;99.90;;;;;;5049513;28;20098;-75
2022/12/22 13:41:42;;;;;;;4.43;0.90;;;11.80;99.90;;;;;;5049358;28;20029;-75
2022/12/22 13:44:13;;;;;;;2.45;0.60;;;11.70;99.90;;;;;;5049705;28;20032;-75
2022/12/22 13:46:40;;;;;;;1.85;0.95;;;11.80;99.90;;;;;;5048952;28;20033;-74
2022/12/22 13:49:11;;;;;;;2.35;0.70;;;11.80;99.90;;;;;;5050257;28;20078;-75
2022/12/22 13:51:37;;;;;;;4.15;0.90;;;11.90;99.90;;;;;;5050425;28;20501;-75
2022/12/22 13:54:28;;;;;;;4.97;1.10;;;12.00;99.90;;;;;;5048815;28;20537;-75
2022/12/22 13:56:55;;;;;;;1.65;0.47;;;12.10;99.90;;;;;;5030275;28;20045;-75
2022/12/22 13:59:44;;;;;;;2.97;0.60;;;12.00;99.90;;;;;;5048596;28;20156;-75
2022/12/22 14:02:10;;;;;;;2.42;1.40;;;12.10;99.90;;;;;;5045622;28;20053;-74
2022/12/22 14:04:38;;;;;;;2.85;1.25;;;12.10;99.90;;;;;;5050385;28;20025;-75
2022/12/22 14:07:14;;;;;;;2.80;0.95;;;12.10;99.90;;;;;;5050782;28;20021;-75
2022/12/22 14:09:54;;;;;;;3.88;1.10;;;12.10;99.90;;;;;;5046896;28;20041;-75
2022/12/22 14:12:21;;;;;;;3.00;0.63;;;12.00;99.90;;;;;;5037833;28;20123;-74
2022/12/22 14:14:49;;;;;;;6.32;1.35;;;12.10;99.90;;;;;;5045173;28;20057;-74
2022/12/22 14:17:21;;;;;;;2.60;0.80;;;12.10;99.90;;;;;;5049545;28;20028;-75
2022/12/22 14:19:50;;;;;;;3.72;0.90;;;12.10;99.90;;;;;;5048630;28;20422;-74
2022/12/22 14:22:20;;;;;;;2.85;0.82;;;12.20;99.90;;;;;;5043967;28;20029;-74
2022/12/22 14:24:53;;;;;;;2.70;0.95;;;12.20;99.90;;;;;;5049386;28;20029;-75
2022/12/22 14:27:45;;;;;;;4.03;1.02;;;12.20;99.90;;;;;;5049777;28;20049;-74
2022/12/22 14:30:44;;;;;;;3.35;0.90;;;12.20;99.90;;;;;;5051572;28;20409;-75
2022/12/22 14:33:31;;;;;;;6.60;1.33;;;12.10;99.90;;;;;;5051543;28;20477;-75
2022/12/22 14:36:24;;;;;;;5.53;1.58;;;12.10;99.90;;;;;;5065797;28;20467;-75
2022/12/22 14:38:58;;;;;;;5.25;1.33;;;11.90;99.90;;;;;;5058213;28;20076;-75
2022/12/22 14:41:42;;;;;;;5.80;1.52;;;11.80;99.90;;;;;;5065517;28;20071;-75
2022/12/22 14:44:15;;;;;;;5.90;1.30;;;11.70;99.90;;;;;;5059838;28;20036;-75
2022/12/22 14:46:43;;;;;;;9.52;2.20;;;11.60;99.90;;;;;;5051191;28;20021;-76
2022/12/22 14:49:15;;;;;;;7.68;1.73;;;11.60;99.90;;;;;;5054075;28;20088;-74
2022/12/22 14:51:41;;;;;;;8.00;2.20;;;11.50;99.90;;;;;;5054069;28;20059;-76
2022/12/22 14:54:19;;;;;;;8.85;2.10;;;11.50;99.90;;;;;;5053028;28;20029;-75
2022/12/22 14:56:50;;;;;;;7.55;1.63;;;11.60;99.90;;;;;;5045394;28;20037;-76
2022/12/22 14:59:25;;;;;;;6.18;2.10;;;11.50;99.90;;;;;;5053851;28;20043;-75
2022/12/22 15:02:24;;;;;;;8.80;2.30;;;11.40;99.90;;;;;;5035231;28;20032;-75
2022/12/22 15:05:12;;;;;;;9.82;1.95;;;11.30;99.90;;;;;;5036322;28;20433;-75
2022/12/22 15:07:47;;;;;;;9.52;2.22;;;11.20;99.90;;;;;;5042429;28;20037;-71
2022/12/22 15:10:12;;;;;;;9.10;1.85;;;11.20;99.90;;;;;;5054586;28;20059;-74
2022/12/22 15:12:38;;;;;;;9.90;1.88;;;11.10;99.90;;;;;;5050903;28;20021;-77
2022/12/22 15:15:15;;;;;;;11.60;2.10;;;11.10;99.90;;;;;;5045541;28;20037;-73
2022/12/22 15:17:44;;;;;;;10.00;2.00;;;11.00;99.90;;;;;;5046246;28;20037;-80
2022/12/22 15:20:20;;;;;;;11.57;2.45;;;11.00;99.90;;;;;;5047856;28;20078;-79
2022/12/22 15:22:46;;;;;;;11.02;1.90;;;10.90;99.90;;;;;;5052035;28;20466;-78
2022/12/22 15:25:22;;;;;;;14.63;3.40;;;10.90;99.90;;;;;;5051366;28;20485;-77
2022/12/22 15:27:49;;;;;;;6.45;1.35;;;10.90;99.90;;;;;;5031757;28;20029;-74
2022/12/22 15:30:17;;;;;;;11.15;2.40;;;10.80;99.90;;;;;;5049952;28;20041;-73
2022/12/22 15:32:43;;;;;;;11.45;1.92;;;10.80;99.90;;;;;;5051986;28;20447;-73
2022/12/22 15:35:32;;;;;;;5.80;1.75;;;10.80;99.90;;;;;;5051342;28;20056;-76
2022/12/22 15:37:58;;;;;;;8.30;2.00;;;10.70;99.90;;;;;;5051435;28;20091;-76
2022/12/22 15:40:25;;;;;;;8.25;2.05;;;10.70;99.90;;;;;;5049495;28;20029;-72
2022/12/22 15:42:51;;;;;;;9.30;1.90;;;10.60;99.90;;;;;;5048272;28;20103;-74
2022/12/22 15:45:18;;;;;;;8.68;1.83;;;10.60;99.90;;;;;;5047914;28;20359;-75
2022/12/22 15:47:49;;;;;;;12.10;2.22;;;10.50;99.90;;;;;;5051190;28;20029;-74
2022/12/22 15:50:22;;;;;;;5.55;1.80;;;10.40;99.90;;;;;;5050906;28;20032;-75
2022/12/22 15:52:52;;;;;;;8.40;1.65;;;10.40;99.90;;;;;;5048776;28;20013;-71
2022/12/22 15:55:19;;;;;;;8.07;1.80;;;10.40;99.90;;;;;;5051659;28;20017;-72
2022/12/22 15:57:46;;;;;;;8.85;2.15;;;10.40;99.90;;;;;;5050744;28;20044;-75
2022/12/22 16:00:13;;;;;;;6.68;1.83;;;10.40;99.90;;;;;;5032527;28;20041;-69
2022/12/22 16:02:38;;;;;;;7.57;1.48;;;10.40;99.90;;;;;;5051907;28;20163;-68
2022/12/22 16:05:05;;;;;;;7.55;2.30;;;10.30;99.90;;;;;;5050466;28;20128;-69
2022/12/22 16:07:31;;;;;;;8.32;2.25;;;10.30;99.90;;;;;;5052157;28;20052;-68
2022/12/22 16:09:57;;;;;;;11.45;2.30;;;10.30;99.90;;;;;;5050707;28;20036;-68
2022/12/22 16:12:23;;;;;;;7.70;1.83;;;10.20;99.90;;;;;;5051251;28;20025;-69
2022/12/22 16:14:52;;;;;;;8.38;2.00;;;10.20;99.90;;;;;;5040414;28;20029;-68
2022/12/22 16:17:20;;;;;;;8.57;2.30;;;10.20;99.90;;;;;;5045404;28;20104;-69
2022/12/22 16:19:46;;;;;;;10.02;2.33;;;10.10;99.90;;;;;;5047048;28;20378;-66
2022/12/22 16:22:18;;;;;;;10.52;2.35;;;10.10;99.90;;;;;;5051480;28;20035;-70
2022/12/22 16:24:47;;;;;;;10.65;2.20;;;10.00;99.90;;;;;;5046920;28;20029;-66
2022/12/22 16:27:13;;;;;;;8.88;2.28;;;10.00;99.90;;;;;;5043865;28;20043;-67
2022/12/22 16:29:42;;;;;;;12.95;2.60;;;10.00;99.90;;;;;;5047403;28;20097;-70
2022/12/22 16:32:15;;;;;;;12.50;2.67;;;10.00;99.90;;;;;;5011375;28;20036;-81
2022/12/22 16:34:41;;;;;;;11.52;2.50;;;9.90;99.90;;;;;;5041477;28;20039;-74
2022/12/22 16:37:07;;;;;;;10.90;2.47;;;9.90;99.90;;;;;;5052950;28;20033;-68
2022/12/22 16:39:32;;;;;;;14.07;2.78;;;9.90;99.90;;;;;;5041136;28;20059;-68
2022/12/22 16:41:59;;;;;;;11.98;2.15;;;9.90;99.90;;;;;;5050353;28;20106;-69
2022/12/22 16:44:25;;;;;;;11.85;2.85;;;10.00;99.90;;;;;;5040551;28;20040;-68
2022/12/22 16:46:50;;;;;;;8.25;1.83;;;10.00;99.90;;;;;;5026373;28;20033;-68